Disclaimer

Please do not use the information listed here in-flight or in-navigation, as they are not provided to us by the airports but are provided by volunteers, so they might be outdated.

Search


Regions


Airport information page

Radio informations:
Tower (TWR) - 124.2 MHz
Approach (APP) - 122.7 MHz

Airport informations:
Latitude: 43° 16' 58.44" N
Longitude: 017° 50' 45.16" E
Elevation: 156 feet - 48 meters
Operating hours: Remarks
Operating agency: Civil government, landing fees and diplomatic clearance may be required
Timezone: UTC+1(+2DT) - Last Sunday in March to last Sunday in October
Fuel: Jet fuel avaiable but type is unknown.

Runway information:
16/34 - 7874 x 158 feet< - >2400 x 48 meters

Recent METARs:
LQMO 160600Z VRB04KT 9999 FEW045 08/M02 Q1022
LQMO 160630Z 10006KT 9999 FEW045 07/M02 Q1022
LQMO 160700Z 24003KT 150V310 9999 FEW050 10/M01 Q1022

Airport on the map: